sensor_id;sensor_type;location;lat;lon;timestamp;pressure;altitude;pressure_sealevel;temperature;humidity
3748;BME280;1889;50.058;8.688;2023-03-18T00:01:43;99751.80;;;14.29;55.12
3748;BME280;1889;50.058;8.688;2023-03-18T00:04:12;99751.80;;;14.29;55.12
3748;BME280;1889;50.058;8.688;2023-03-18T00:06:41;99742.98;;;14.19;55.38
3748;BME280;1889;50.058;8.688;2023-03-18T00:09:12;99742.69;;;14.36;54.99
3748;BME280;1889;50.058;8.688;2023-03-18T00:11:41;99747.09;;;14.49;54.60
3748;BME280;1889;50.058;8.688;2023-03-18T00:14:11;99745.11;;;14.54;54.46
3748;BME280;1889;50.058;8.688;2023-03-18T00:16:41;99751.16;;;14.58;53.58
3748;BME280;1889;50.058;8.688;2023-03-18T00:19:10;99754.77;;;14.67;53.01
3748;BME280;1889;50.058;8.688;2023-03-18T00:21:40;99760.05;;;14.33;53.53
3748;BME280;1889;50.058;8.688;2023-03-18T00:24:09;99764.17;;;14.29;53.56
3748;BME280;1889;50.058;8.688;2023-03-18T00:26:39;99757.89;;;14.55;53.08
3748;BME280;1889;50.058;8.688;2023-03-18T00:29:09;99765.58;;;14.50;53.19
3748;BME280;1889;50.058;8.688;2023-03-18T00:31:39;99768.28;;;14.71;52.41
3748;BME280;1889;50.058;8.688;2023-03-18T00:34:08;99775.28;;;14.83;51.95
3748;BME280;1889;50.058;8.688;2023-03-18T00:36:38;99775.97;;;14.67;52.24
3748;BME280;1889;50.058;8.688;2023-03-18T00:39:07;99776.95;;;14.53;52.55
3748;BME280;1889;50.058;8.688;2023-03-18T00:41:38;99767.67;;;14.64;52.48
3748;BME280;1889;50.058;8.688;2023-03-18T00:44:07;99773.22;;;14.58;52.74
3748;BME280;1889;50.058;8.688;2023-03-18T00:46:37;99770.72;;;14.65;52.53
3748;BME280;1889;50.058;8.688;2023-03-18T00:49:07;99775.05;;;14.78;52.16
3748;BME280;1889;50.058;8.688;2023-03-18T00:51:37;99782.83;;;14.82;52.15
3748;BME280;1889;50.058;8.688;2023-03-18T00:54:10;99778.98;;;14.68;52.39
3748;BME280;1889;50.058;8.688;2023-03-18T00:56:40;99787.32;;;14.80;52.20
3748;BME280;1889;50.058;8.688;2023-03-18T00:59:10;99783.72;;;14.60;52.54
3748;BME280;1889;50.058;8.688;2023-03-18T01:01:40;99777.95;;;14.72;52.43
3748;BME280;1889;50.058;8.688;2023-03-18T01:04:09;99769.49;;;14.74;52.44
3748;BME280;1889;50.058;8.688;2023-03-18T01:06:39;99768.02;;;14.77;52.71
3748;BME280;1889;50.058;8.688;2023-03-18T01:09:08;99778.45;;;14.81;52.92
3748;BME280;1889;50.058;8.688;2023-03-18T01:11:38;99778.45;;;14.81;52.92
3748;BME280;1889;50.058;8.688;2023-03-18T01:14:08;99779.08;;;14.55;53.83
3748;BME280;1889;50.058;8.688;2023-03-18T01:16:37;99782.80;;;14.39;54.46
3748;BME280;1889;50.058;8.688;2023-03-18T01:19:07;99792.52;;;14.50;54.31
3748;BME280;1889;50.058;8.688;2023-03-18T01:21:36;99783.41;;;14.57;54.15
3748;BME280;1889;50.058;8.688;2023-03-18T01:24:06;99784.53;;;14.62;54.21
3748;BME280;1889;50.058;8.688;2023-03-18T01:26:38;99790.43;;;14.80;53.96
3748;BME280;1889;50.058;8.688;2023-03-18T01:29:07;99785.95;;;14.70;54.57
3748;BME280;1889;50.058;8.688;2023-03-18T01:31:37;99787.14;;;14.51;55.55
3748;BME280;1889;50.058;8.688;2023-03-18T01:34:07;99782.84;;;14.71;54.92
3748;BME280;1889;50.058;8.688;2023-03-18T01:36:36;99782.84;;;14.71;54.92
3748;BME280;1889;50.058;8.688;2023-03-18T01:39:06;99778.01;;;14.70;55.47
3748;BME280;1889;50.058;8.688;2023-03-18T01:41:37;99782.50;;;14.68;55.93
3748;BME280;1889;50.058;8.688;2023-03-18T01:44:19;99783.50;;;14.66;56.03
3748;BME280;1889;50.058;8.688;2023-03-18T01:46:50;99780.80;;;14.67;56.00
3748;BME280;1889;50.058;8.688;2023-03-18T01:49:46;99788.56;;;14.60;56.69
3748;BME280;1889;50.058;8.688;2023-03-18T01:55:14;99784.00;;;14.19;59.03
3748;BME280;1889;50.058;8.688;2023-03-18T01:57:38;99783.82;;;14.35;58.52
3748;BME280;1889;50.058;8.688;2023-03-18T02:00:16;99784.14;;;14.37;58.65
3748;BME280;1889;50.058;8.688;2023-03-18T02:02:48;99779.22;;;14.17;60.20
3748;BME280;1889;50.058;8.688;2023-03-18T02:05:22;99778.47;;;14.25;59.76
3748;BME280;1889;50.058;8.688;2023-03-18T02:07:53;99783.82;;;14.35;59.63
3748;BME280;1889;50.058;8.688;2023-03-18T02:10:25;99784.02;;;14.42;59.62
3748;BME280;1889;50.058;8.688;2023-03-18T02:13:03;99777.30;;;14.43;59.61
3748;BME280;1889;50.058;8.688;2023-03-18T02:15:42;99785.09;;;14.48;59.71
3748;BME280;1889;50.058;8.688;2023-03-18T02:18:09;99783.30;;;14.48;59.75
3748;BME280;1889;50.058;8.688;2023-03-18T02:20:56;99779.17;;;14.41;60.29
3748;BME280;1889;50.058;8.688;2023-03-18T02:26:39;99777.52;;;14.37;60.63
3748;BME280;1889;50.058;8.688;2023-03-18T02:29:07;99777.11;;;14.36;60.49
3748;BME280;1889;50.058;8.688;2023-03-18T02:31:37;99783.11;;;14.30;61.14
3748;BME280;1889;50.058;8.688;2023-03-18T02:34:08;99780.55;;;14.17;61.54
3748;BME280;1889;50.058;8.688;2023-03-18T02:36:39;99784.78;;;14.32;60.89
3748;BME280;1889;50.058;8.688;2023-03-18T02:39:13;99777.39;;;14.42;60.72
3748;BME280;1889;50.058;8.688;2023-03-18T02:41:43;99770.23;;;14.44;60.78
3748;BME280;1889;50.058;8.688;2023-03-18T02:44:13;99771.39;;;14.48;60.92
3748;BME280;1889;50.058;8.688;2023-03-18T02:46:54;99772.66;;;14.50;60.92
3748;BME280;1889;50.058;8.688;2023-03-18T02:49:25;99773.44;;;14.52;60.96
3748;BME280;1889;50.058;8.688;2023-03-18T02:51:55;99779.90;;;14.45;61.06
3748;BME280;1889;50.058;8.688;2023-03-18T02:54:27;99779.33;;;14.48;60.91
3748;BME280;1889;50.058;8.688;2023-03-18T02:56:57;99784.12;;;14.50;60.91
3748;BME280;1889;50.058;8.688;2023-03-18T02:59:26;99785.90;;;14.50;60.99
3748;BME280;1889;50.058;8.688;2023-03-18T03:01:56;99788.99;;;14.14;62.08
3748;BME280;1889;50.058;8.688;2023-03-18T03:04:26;99793.42;;;14.14;62.26
3748;BME280;1889;50.058;8.688;2023-03-18T03:06:56;99792.52;;;14.27;61.94
3748;BME280;1889;50.058;8.688;2023-03-18T03:09:26;99797.30;;;13.81;64.53
3748;BME280;1889;50.058;8.688;2023-03-18T03:11:55;99801.41;;;13.78;64.56
3748;BME280;1889;50.058;8.688;2023-03-18T03:14:25;99799.74;;;13.98;63.76
3748;BME280;1889;50.058;8.688;2023-03-18T03:16:54;99799.74;;;13.98;63.76
3748;BME280;1889;50.058;8.688;2023-03-18T03:19:25;99784.78;;;14.21;63.56
3748;BME280;1889;50.058;8.688;2023-03-18T03:21:54;99782.03;;;14.24;63.40
3748;BME280;1889;50.058;8.688;2023-03-18T03:24:24;99782.03;;;14.24;63.41
3748;BME280;1889;50.058;8.688;2023-03-18T03:26:53;99779.84;;;14.23;63.42
3748;BME280;1889;50.058;8.688;2023-03-18T03:29:22;99786.16;;;14.31;63.42
3748;BME280;1889;50.058;8.688;2023-03-18T03:31:52;99790.54;;;14.32;63.39
3748;BME280;1889;50.058;8.688;2023-03-18T03:34:21;99802.97;;;14.30;63.41
3748;BME280;1889;50.058;8.688;2023-03-18T03:36:52;99809.94;;;14.32;63.46
3748;BME280;1889;50.058;8.688;2023-03-18T03:39:21;99815.23;;;14.32;63.38
3748;BME280;1889;50.058;8.688;2023-03-18T03:41:50;99827.98;;;13.86;65.07
3748;BME280;1889;50.058;8.688;2023-03-18T03:44:20;99827.98;;;13.86;65.07
3748;BME280;1889;50.058;8.688;2023-03-18T03:46:49;99837.50;;;13.14;68.52
3748;BME280;1889;50.058;8.688;2023-03-18T03:49:19;99833.60;;;13.26;68.74
3748;BME280;1889;50.058;8.688;2023-03-18T03:51:49;99835.61;;;13.57;66.95
3748;BME280;1889;50.058;8.688;2023-03-18T03:54:18;99828.22;;;13.67;66.47
3748;BME280;1889;50.058;8.688;2023-03-18T03:56:48;99829.05;;;13.81;66.04
3748;BME280;1889;50.058;8.688;2023-03-18T03:59:17;99825.58;;;13.67;66.68
3748;BME280;1889;50.058;8.688;2023-03-18T04:01:47;99830.55;;;13.76;66.33
3748;BME280;1889;50.058;8.688;2023-03-18T04:04:16;99827.59;;;13.72;66.45
3748;BME280;1889;50.058;8.688;2023-03-18T04:06:46;99828.81;;;13.75;66.34
3748;BME280;1889;50.058;8.688;2023-03-18T04:09:15;99825.94;;;13.56;67.62
3748;BME280;1889;50.058;8.688;2023-03-18T04:11:44;99824.21;;;13.55;67.78
3748;BME280;1889;50.058;8.688;2023-03-18T04:14:14;99827.55;;;13.73;67.01
3748;BME280;1889;50.058;8.688;2023-03-18T04:16:44;99825.67;;;13.77;66.85
3748;BME280;1889;50.058;8.688;2023-03-18T04:19:13;99814.91;;;13.82;66.75
3748;BME280;1889;50.058;8.688;2023-03-18T04:21:44;99816.05;;;13.74;66.84
3748;BME280;1889;50.058;8.688;2023-03-18T04:24:13;99823.22;;;13.33;69.23
3748;BME280;1889;50.058;8.688;2023-03-18T04:26:42;99817.14;;;13.56;68.23
3748;BME280;1889;50.058;8.688;2023-03-18T04:29:12;99820.19;;;13.70;67.69
3748;BME280;1889;50.058;8.688;2023-03-18T04:31:41;99821.09;;;13.44;68.86
3748;BME280;1889;50.058;8.688;2023-03-18T04:34:12;99822.66;;;13.23;69.67
3748;BME280;1889;50.058;8.688;2023-03-18T04:36:41;99821.25;;;13.26;69.22
3748;BME280;1889;50.058;8.688;2023-03-18T04:39:10;99824.85;;;13.24;69.38
3748;BME280;1889;50.058;8.688;2023-03-18T04:41:39;99817.86;;;13.08;70.04
3748;BME280;1889;50.058;8.688;2023-03-18T04:44:09;99821.04;;;13.32;69.07
3748;BME280;1889;50.058;8.688;2023-03-18T04:46:39;99816.48;;;13.38;68.51
3748;BME280;1889;50.058;8.688;2023-03-18T04:49:08;99825.41;;;13.33;68.38
3748;BME280;1889;50.058;8.688;2023-03-18T04:51:38;99816.77;;;13.42;68.12
3748;BME280;1889;50.058;8.688;2023-03-18T04:54:07;99817.51;;;13.58;67.43
3748;BME280;1889;50.058;8.688;2023-03-18T04:56:36;99819.19;;;13.61;67.27
3748;BME280;1889;50.058;8.688;2023-03-18T04:59:06;99828.16;;;13.17;68.60
3748;BME280;1889;50.058;8.688;2023-03-18T05:01:36;99836.62;;;12.73;70.42
3748;BME280;1889;50.058;8.688;2023-03-18T05:04:05;99842.64;;;12.63;71.02
3748;BME280;1889;50.058;8.688;2023-03-18T05:06:35;99852.53;;;12.84;69.95
3748;BME280;1889;50.058;8.688;2023-03-18T05:09:05;99845.64;;;12.93;69.33
3748;BME280;1889;50.058;8.688;2023-03-18T05:11:35;99848.03;;;13.01;69.05
3748;BME280;1889;50.058;8.688;2023-03-18T05:14:05;99836.56;;;13.02;68.85
3748;BME280;1889;50.058;8.688;2023-03-18T05:16:34;99837.95;;;13.14;68.53
3748;BME280;1889;50.058;8.688;2023-03-18T05:19:04;99839.55;;;13.19;68.22
3748;BME280;1889;50.058;8.688;2023-03-18T05:21:33;99835.13;;;13.20;68.17
3748;BME280;1889;50.058;8.688;2023-03-18T05:24:03;99840.83;;;13.21;68.07
3748;BME280;1889;50.058;8.688;2023-03-18T05:26:33;99839.25;;;13.28;67.99
3748;BME280;1889;50.058;8.688;2023-03-18T05:29:03;99842.64;;;13.32;67.90
3748;BME280;1889;50.058;8.688;2023-03-18T05:31:32;99830.16;;;13.37;67.83
3748;BME280;1889;50.058;8.688;2023-03-18T05:34:02;99828.66;;;13.42;67.67
3748;BME280;1889;50.058;8.688;2023-03-18T05:36:31;99835.97;;;13.47;67.50
3748;BME280;1889;50.058;8.688;2023-03-18T05:39:01;99837.14;;;13.38;67.45
3748;BME280;1889;50.058;8.688;2023-03-18T05:41:30;99834.50;;;13.38;67.54
3748;BME280;1889;50.058;8.688;2023-03-18T05:44:00;99839.04;;;13.34;67.46
3748;BME280;1889;50.058;8.688;2023-03-18T05:46:30;99842.39;;;13.26;67.67
3748;BME280;1889;50.058;8.688;2023-03-18T05:49:00;99845.45;;;13.27;67.62
3748;BME280;1889;50.058;8.688;2023-03-18T05:51:29;99841.20;;;13.22;67.42
3748;BME280;1889;50.058;8.688;2023-03-18T05:53:59;99841.20;;;13.22;67.42
3748;BME280;1889;50.058;8.688;2023-03-18T05:56:29;99848.66;;;13.09;67.85
3748;BME280;1889;50.058;8.688;2023-03-18T05:58:58;99846.83;;;13.11;67.76
3748;BME280;1889;50.058;8.688;2023-03-18T06:01:28;99844.84;;;13.19;67.64
3748;BME280;1889;50.058;8.688;2023-03-18T06:03:59;99848.80;;;13.19;67.65
3748;BME280;1889;50.058;8.688;2023-03-18T06:06:28;99859.41;;;13.18;67.69
3748;BME280;1889;50.058;8.688;2023-03-18T06:08:58;99856.66;;;13.06;67.94
3748;BME280;1889;50.058;8.688;2023-03-18T06:11:28;99861.86;;;13.09;67.96
3748;BME280;1889;50.058;8.688;2023-03-18T06:13:57;99859.84;;;13.04;68.19
3748;BME280;1889;50.058;8.688;2023-03-18T06:16:26;99860.17;;;13.07;68.17
3748;BME280;1889;50.058;8.688;2023-03-18T06:18:56;99864.30;;;13.02;68.34
3748;BME280;1889;50.058;8.688;2023-03-18T06:21:25;99866.90;;;13.04;68.59
3748;BME280;1889;50.058;8.688;2023-03-18T06:23:54;99871.77;;;13.17;68.29
3748;BME280;1889;50.058;8.688;2023-03-18T06:26:24;99867.84;;;13.16;68.25
3748;BME280;1889;50.058;8.688;2023-03-18T06:28:55;99869.82;;;13.22;68.20
3748;BME280;1889;50.058;8.688;2023-03-18T06:31:25;99867.75;;;13.32;68.05
3748;BME280;1889;50.058;8.688;2023-03-18T06:33:54;99879.43;;;13.38;67.97
3748;BME280;1889;50.058;8.688;2023-03-18T06:36:24;99886.20;;;13.47;67.87
3748;BME280;1889;50.058;8.688;2023-03-18T06:38:54;99882.84;;;13.55;67.73
3748;BME280;1889;50.058;8.688;2023-03-18T06:41:23;99881.42;;;13.58;67.78
3748;BME280;1889;50.058;8.688;2023-03-18T06:43:53;99883.30;;;13.67;67.51
3748;BME280;1889;50.058;8.688;2023-03-18T06:46:22;99872.27;;;13.68;67.49
3748;BME280;1889;50.058;8.688;2023-03-18T06:48:52;99873.15;;;13.80;67.39
3748;BME280;1889;50.058;8.688;2023-03-18T06:51:22;99879.21;;;13.84;67.44
3748;BME280;1889;50.058;8.688;2023-03-18T06:53:52;99875.92;;;13.77;67.61
3748;BME280;1889;50.058;8.688;2023-03-18T06:56:21;99881.63;;;13.78;67.75
3748;BME280;1889;50.058;8.688;2023-03-18T06:58:51;99879.98;;;13.74;67.98
3748;BME280;1889;50.058;8.688;2023-03-18T07:01:20;99881.09;;;13.80;67.86
3748;BME280;1889;50.058;8.688;2023-03-18T07:03:49;99885.59;;;13.78;67.80
3748;BME280;1889;50.058;8.688;2023-03-18T07:06:19;99882.84;;;13.68;67.91
3748;BME280;1889;50.058;8.688;2023-03-18T07:08:48;99879.88;;;13.64;68.01
3748;BME280;1889;50.058;8.688;2023-03-18T07:11:20;99877.70;;;13.63;68.07
3748;BME280;1889;50.058;8.688;2023-03-18T07:13:49;99885.48;;;13.55;68.24
3748;BME280;1889;50.058;8.688;2023-03-18T07:16:20;99883.77;;;13.27;69.49
3748;BME280;1889;50.058;8.688;2023-03-18T07:18:49;99882.16;;;13.36;69.11
3748;BME280;1889;50.058;8.688;2023-03-18T07:21:19;99893.64;;;13.35;69.02
3748;BME280;1889;50.058;8.688;2023-03-18T07:23:49;99891.34;;;12.68;71.69
3748;BME280;1889;50.058;8.688;2023-03-18T07:26:19;99889.30;;;12.63;72.24
3748;BME280;1889;50.058;8.688;2023-03-18T07:28:49;99898.89;;;12.50;72.89
3748;BME280;1889;50.058;8.688;2023-03-18T07:31:18;99895.86;;;12.33;73.94
3748;BME280;1889;50.058;8.688;2023-03-18T07:33:48;99905.07;;;12.49;73.56
3748;BME280;1889;50.058;8.688;2023-03-18T07:36:17;99898.27;;;12.72;72.82
3748;BME280;1889;50.058;8.688;2023-03-18T07:38:48;99900.66;;;12.94;72.19
3748;BME280;1889;50.058;8.688;2023-03-18T07:41:17;99903.60;;;13.13;71.74
3748;BME280;1889;50.058;8.688;2023-03-18T07:43:46;99902.56;;;13.31;71.20
3748;BME280;1889;50.058;8.688;2023-03-18T07:46:16;99900.95;;;13.27;71.18
3748;BME280;1889;50.058;8.688;2023-03-18T07:48:45;99906.89;;;13.21;71.56
3748;BME280;1889;50.058;8.688;2023-03-18T07:51:15;99907.39;;;13.32;70.68
3748;BME280;1889;50.058;8.688;2023-03-18T07:53:45;99909.70;;;13.29;69.87
3748;BME280;1889;50.058;8.688;2023-03-18T07:56:14;99912.59;;;13.35;69.45
3748;BME280;1889;50.058;8.688;2023-03-18T07:58:44;99921.31;;;13.09;69.00
3748;BME280;1889;50.058;8.688;2023-03-18T08:01:13;99923.63;;;13.34;68.46
3748;BME280;1889;50.058;8.688;2023-03-18T08:03:46;99923.23;;;13.60;67.22
3748;BME280;1889;50.058;8.688;2023-03-18T08:06:16;99926.10;;;13.26;67.35
3748;BME280;1889;50.058;8.688;2023-03-18T08:08:45;99913.66;;;13.43;67.43
3748;BME280;1889;50.058;8.688;2023-03-18T08:11:16;99917.78;;;13.64;67.17
3748;BME280;1889;50.058;8.688;2023-03-18T08:13:46;99915.33;;;13.85;66.59
3748;BME280;1889;50.058;8.688;2023-03-18T08:16:15;99915.12;;;14.16;65.49
3748;BME280;1889;50.058;8.688;2023-03-18T08:18:45;99915.12;;;14.16;65.49
3748;BME280;1889;50.058;8.688;2023-03-18T08:21:15;99914.28;;;14.27;64.37
3748;BME280;1889;50.058;8.688;2023-03-18T08:23:44;99921.33;;;14.14;62.56
3748;BME280;1889;50.058;8.688;2023-03-18T08:26:14;99918.03;;;14.33;62.27
3748;BME280;1889;50.058;8.688;2023-03-18T08:28:44;99915.95;;;14.42;60.18
3748;BME280;1889;50.058;8.688;2023-03-18T08:31:13;99916.32;;;14.43;60.10
3748;BME280;1889;50.058;8.688;2023-03-18T08:33:43;99912.78;;;14.56;60.04
3748;BME280;1889;50.058;8.688;2023-03-18T08:36:13;99917.84;;;14.62;58.99
3748;BME280;1889;50.058;8.688;2023-03-18T08:38:43;99911.28;;;14.72;58.43
3748;BME280;1889;50.058;8.688;2023-03-18T08:41:12;99915.02;;;14.78;58.15
3748;BME280;1889;50.058;8.688;2023-03-18T08:43:41;99915.58;;;14.86;57.94
3748;BME280;1889;50.058;8.688;2023-03-18T08:46:12;99916.84;;;14.76;56.51
3748;BME280;1889;50.058;8.688;2023-03-18T08:48:41;99916.95;;;14.97;56.75
3748;BME280;1889;50.058;8.688;2023-03-18T08:51:11;99916.91;;;14.98;54.58
3748;BME280;1889;50.058;8.688;2023-03-18T08:53:40;99907.95;;;15.01;53.60
3748;BME280;1889;50.058;8.688;2023-03-18T08:56:09;99908.90;;;15.00;52.50
3748;BME280;1889;50.058;8.688;2023-03-18T08:58:40;99903.05;;;15.02;51.94
3748;BME280;1889;50.058;8.688;2023-03-18T09:01:12;99908.84;;;15.23;52.05
3748;BME280;1889;50.058;8.688;2023-03-18T09:03:41;99909.31;;;15.33;51.90
3748;BME280;1889;50.058;8.688;2023-03-18T09:06:11;99912.45;;;15.42;52.04
3748;BME280;1889;50.058;8.688;2023-03-18T09:08:41;99908.97;;;15.52;51.47
3748;BME280;1889;50.058;8.688;2023-03-18T09:11:11;99913.81;;;15.64;51.54
3748;BME280;1889;50.058;8.688;2023-03-18T09:13:41;99917.59;;;15.69;50.16
3748;BME280;1889;50.058;8.688;2023-03-18T09:16:10;99919.98;;;15.64;49.75
3748;BME280;1889;50.058;8.688;2023-03-18T09:18:40;99919.32;;;15.70;48.38
3748;BME280;1889;50.058;8.688;2023-03-18T09:21:09;99925.92;;;15.59;48.74
3748;BME280;1889;50.058;8.688;2023-03-18T09:23:39;99913.80;;;15.74;48.67
3748;BME280;1889;50.058;8.688;2023-03-18T09:26:08;99912.75;;;15.68;49.39
3748;BME280;1889;50.058;8.688;2023-03-18T09:28:38;99919.13;;;15.84;49.19
3748;BME280;1889;50.058;8.688;2023-03-18T09:31:07;99912.16;;;15.92;48.60
3748;BME280;1889;50.058;8.688;2023-03-18T09:33:37;99911.89;;;15.98;47.67
3748;BME280;1889;50.058;8.688;2023-03-18T09:36:08;99916.68;;;16.00;48.51
3748;BME280;1889;50.058;8.688;2023-03-18T09:38:38;99913.17;;;16.10;48.14
3748;BME280;1889;50.058;8.688;2023-03-18T09:47:06;99918.77;;;16.53;46.67
3748;BME280;1889;50.058;8.688;2023-03-18T09:49:41;99910.28;;;16.45;46.52
3748;BME280;1889;50.058;8.688;2023-03-18T09:52:12;99917.91;;;16.52;46.50
3748;BME280;1889;50.058;8.688;2023-03-18T09:55:04;99914.92;;;16.39;46.62
3748;BME280;1889;50.058;8.688;2023-03-18T09:57:41;99918.67;;;16.54;46.80
3748;BME280;1889;50.058;8.688;2023-03-18T10:00:26;99922.59;;;16.56;46.39
3748;BME280;1889;50.058;8.688;2023-03-18T10:05:50;99917.64;;;16.38;46.54
3748;BME280;1889;50.058;8.688;2023-03-18T10:11:09;99906.94;;;16.50;46.86
3748;BME280;1889;50.058;8.688;2023-03-18T10:16:44;99905.73;;;16.57;46.34
3748;BME280;1889;50.058;8.688;2023-03-18T10:19:08;99904.52;;;16.74;46.22
3748;BME280;1889;50.058;8.688;2023-03-18T10:24:41;99904.42;;;16.86;45.72
3748;BME280;1889;50.058;8.688;2023-03-18T10:36:04;99901.23;;;17.15;44.48
3748;BME280;1889;50.058;8.688;2023-03-18T10:38:36;99899.88;;;17.06;44.48
3748;BME280;1889;50.058;8.688;2023-03-18T10:43:50;99911.80;;;17.16;45.02
3748;BME280;1889;50.058;8.688;2023-03-18T10:46:21;99903.68;;;17.28;44.75
3748;BME280;1889;50.058;8.688;2023-03-18T10:49:19;99905.22;;;17.42;44.56
3748;BME280;1889;50.058;8.688;2023-03-18T10:51:56;99895.78;;;17.18;44.45
3748;BME280;1889;50.058;8.688;2023-03-18T10:54:46;99897.00;;;17.47;44.14
3748;BME280;1889;50.058;8.688;2023-03-18T10:57:17;99889.14;;;17.63;44.18
3748;BME280;1889;50.058;8.688;2023-03-18T10:59:50;99888.49;;;17.58;44.56
3748;BME280;1889;50.058;8.688;2023-03-18T11:02:34;99895.73;;;17.73;44.39
3748;BME280;1889;50.058;8.688;2023-03-18T11:08:00;99882.97;;;17.79;45.03
3748;BME280;1889;50.058;8.688;2023-03-18T11:10:43;99879.58;;;18.02;44.25
3748;BME280;1889;50.058;8.688;2023-03-18T11:13:04;99876.45;;;17.93;44.07
3748;BME280;1889;50.058;8.688;2023-03-18T11:15:39;99882.25;;;17.93;44.34
3748;BME280;1889;50.058;8.688;2023-03-18T11:18:13;99882.25;;;17.93;44.34
3748;BME280;1889;50.058;8.688;2023-03-18T11:20:44;99881.16;;;18.06;43.67
3748;BME280;1889;50.058;8.688;2023-03-18T11:26:23;99888.89;;;18.10;43.49
3748;BME280;1889;50.058;8.688;2023-03-18T11:29:04;99889.13;;;18.23;43.66
3748;BME280;1889;50.058;8.688;2023-03-18T11:31:30;99877.64;;;18.38;43.10
3748;BME280;1889;50.058;8.688;2023-03-18T11:33:59;99877.72;;;18.37;43.02
3748;BME280;1889;50.058;8.688;2023-03-18T11:36:30;99874.09;;;18.46;43.46
3748;BME280;1889;50.058;8.688;2023-03-18T11:39:04;99886.55;;;18.63;43.65
3748;BME280;1889;50.058;8.688;2023-03-18T11:41:36;99888.68;;;18.81;43.37
3748;BME280;1889;50.058;8.688;2023-03-18T11:44:14;99878.69;;;18.84;42.43
3748;BME280;1889;50.058;8.688;2023-03-18T11:46:42;99880.64;;;19.05;43.08
3748;BME280;1889;50.058;8.688;2023-03-18T11:49:16;99869.89;;;19.14;42.01
3748;BME280;1889;50.058;8.688;2023-03-18T11:52:35;99868.28;;;19.11;42.35
3748;BME280;1889;50.058;8.688;2023-03-18T11:54:37;99867.77;;;19.43;41.77
3748;BME280;1889;50.058;8.688;2023-03-18T12:00:02;99863.17;;;19.54;41.10
3748;BME280;1889;50.058;8.688;2023-03-18T12:08:12;99861.38;;;20.12;41.31
3748;BME280;1889;50.058;8.688;2023-03-18T12:10:48;99867.03;;;20.22;40.48
3748;BME280;1889;50.058;8.688;2023-03-18T12:13:19;99860.55;;;20.33;39.94
3748;BME280;1889;50.058;8.688;2023-03-18T12:15:58;99862.45;;;20.31;40.29
3748;BME280;1889;50.058;8.688;2023-03-18T12:27:11;99850.99;;;20.22;40.03
3748;BME280;1889;50.058;8.688;2023-03-18T12:29:50;99850.99;;;20.22;40.03
3748;BME280;1889;50.058;8.688;2023-03-18T12:32:30;99844.63;;;20.39;40.18
3748;BME280;1889;50.058;8.688;2023-03-18T12:35:14;99849.80;;;20.35;40.42
3748;BME280;1889;50.058;8.688;2023-03-18T12:37:54;99848.92;;;20.55;40.51
3748;BME280;1889;50.058;8.688;2023-03-18T12:41:08;99843.45;;;20.71;40.26
3748;BME280;1889;50.058;8.688;2023-03-18T12:43:35;99843.27;;;20.60;39.93
3748;BME280;1889;50.058;8.688;2023-03-18T12:46:27;99835.05;;;20.70;39.73
3748;BME280;1889;50.058;8.688;2023-03-18T12:49:09;99835.80;;;20.79;39.53
3748;BME280;1889;50.058;8.688;2023-03-18T12:51:42;99831.88;;;20.78;38.95
3748;BME280;1889;50.058;8.688;2023-03-18T12:54:28;99826.16;;;20.70;39.58
3748;BME280;1889;50.058;8.688;2023-03-18T12:56:55;99821.80;;;20.54;39.41
3748;BME280;1889;50.058;8.688;2023-03-18T12:59:47;99811.08;;;20.12;40.19
3748;BME280;1889;50.058;8.688;2023-03-18T13:02:45;99824.45;;;20.62;40.36
3748;BME280;1889;50.058;8.688;2023-03-18T13:05:35;99824.45;;;20.62;40.36
3748;BME280;1889;50.058;8.688;2023-03-18T13:10:44;99825.39;;;20.68;39.77
3748;BME280;1889;50.058;8.688;2023-03-18T13:13:16;99811.11;;;20.26;39.78
3748;BME280;1889;50.058;8.688;2023-03-18T13:15:50;99813.02;;;20.10;39.69
3748;BME280;1889;50.058;8.688;2023-03-18T13:18:23;99804.05;;;20.18;40.42
3748;BME280;1889;50.058;8.688;2023-03-18T13:20:55;99804.53;;;20.39;40.21
3748;BME280;1889;50.058;8.688;2023-03-18T13:32:26;99813.36;;;20.68;39.66
3748;BME280;1889;50.058;8.688;2023-03-18T13:43:44;99804.51;;;20.94;38.91
3748;BME280;1889;50.058;8.688;2023-03-18T13:46:24;99806.68;;;21.02;38.92
3748;BME280;1889;50.058;8.688;2023-03-18T13:48:56;99796.67;;;20.98;38.91
3748;BME280;1889;50.058;8.688;2023-03-18T13:54:02;99790.27;;;21.27;37.94
3748;BME280;1889;50.058;8.688;2023-03-18T14:05:39;99793.99;;;20.64;38.69
3748;BME280;1889;50.058;8.688;2023-03-18T14:13:55;99793.65;;;21.24;38.22
3748;BME280;1889;50.058;8.688;2023-03-18T14:19:23;99787.21;;;20.92;38.10
3748;BME280;1889;50.058;8.688;2023-03-18T14:21:54;99789.28;;;21.02;38.46
3748;BME280;1889;50.058;8.688;2023-03-18T14:24:25;99788.59;;;21.12;38.04
3748;BME280;1889;50.058;8.688;2023-03-18T14:29:40;99783.09;;;21.28;38.61
3748;BME280;1889;50.058;8.688;2023-03-18T14:40:38;99773.91;;;21.77;36.82
3748;BME280;1889;50.058;8.688;2023-03-18T14:43:15;99785.02;;;21.46;37.39
3748;BME280;1889;50.058;8.688;2023-03-18T14:45:42;99785.02;;;21.46;37.94
3748;BME280;1889;50.058;8.688;2023-03-18T14:48:22;99773.73;;;21.73;37.46
3748;BME280;1889;50.058;8.688;2023-03-18T14:50:52;99776.05;;;21.85;36.91
3748;BME280;1889;50.058;8.688;2023-03-18T14:55:57;99771.53;;;21.47;37.23
3748;BME280;1889;50.058;8.688;2023-03-18T14:58:27;99772.97;;;21.58;37.52
3748;BME280;1889;50.058;8.688;2023-03-18T15:01:09;99761.72;;;21.66;36.79
3748;BME280;1889;50.058;8.688;2023-03-18T15:03:29;99770.05;;;21.36;37.06
3748;BME280;1889;50.058;8.688;2023-03-18T15:06:00;99769.14;;;21.43;36.98
3748;BME280;1889;50.058;8.688;2023-03-18T15:08:33;99765.41;;;21.45;37.00
3748;BME280;1889;50.058;8.688;2023-03-18T15:11:04;99764.93;;;21.58;36.86
3748;BME280;1889;50.058;8.688;2023-03-18T15:13:34;99769.03;;;21.64;36.11
3748;BME280;1889;50.058;8.688;2023-03-18T15:16:10;99762.39;;;21.37;36.53
3748;BME280;1889;50.058;8.688;2023-03-18T15:18:40;99758.42;;;21.30;36.95
3748;BME280;1889;50.058;8.688;2023-03-18T15:21:19;99763.25;;;21.38;36.74
3748;BME280;1889;50.058;8.688;2023-03-18T15:24:01;99765.16;;;21.16;36.70
3748;BME280;1889;50.058;8.688;2023-03-18T15:26:39;99763.33;;;20.63;37.50
3748;BME280;1889;50.058;8.688;2023-03-18T15:29:27;99761.11;;;20.69;37.15
3748;BME280;1889;50.058;8.688;2023-03-18T15:32:13;99758.94;;;20.62;37.42
3748;BME280;1889;50.058;8.688;2023-03-18T15:34:37;99749.78;;;20.85;37.24
3748;BME280;1889;50.058;8.688;2023-03-18T15:37:30;99754.64;;;21.20;36.56
3748;BME280;1889;50.058;8.688;2023-03-18T15:39:55;99748.05;;;21.11;36.72